Engineer — WDE2824 — position and weather

sailwx.info

Track history (hours):
 
Tides and Currents Weather Stations Pressure Air Temp Water Temp Dewpoint Dewpoint Depression Visibility Wind Speed Wind Dir Waves Ship Positions

Engineer

Owner: Skiffs Creek Towing Inc., Yorktown, VA. More information available from US FCC via Universal Licensing System.

Last reported at 2018-Jun-17 18:35 UTC. Time now 2018-Jun-18 08:00 UTC.
Position N 32°09' W 081°09'.

Length 15 m.

Type: Tug. MMSI: 338142195.

Date/timePositionNaut miles runAvg speedWind from/ knotsBaromVisibWave heightAir tempDewpointWater temp
2018-Jun-17 18:35N 32°09' W 081°09'0 0.0
2018-Jun-17 18:30N 32°09' W 081°09'0 0.3
2018-Jun-17 18:00N 32°09' W 081°09'0 0.1
2018-Jun-17 17:30N 32°09' W 081°09'0 0.1
2018-Jun-17 17:00N 32°09' W 081°09'0 0.1
2018-Jun-17 16:30N 32°09' W 081°09'0 0.1
2018-Jun-17 16:00N 32°09' W 081°09'0 0.0
2018-Jun-17 15:30N 32°09' W 081°09'0 0.2
2018-Jun-17 15:00N 32°09' W 081°09'0 0.1
2018-Jun-17 14:30N 32°09' W 081°09'0 0.1
2018-Jun-17 14:00N 32°09' W 081°09'0 0.1
2018-Jun-17 13:30N 32°09' W 081°09'0 0.2
2018-Jun-17 13:00N 32°09' W 081°09'0 0.0
2018-Jun-17 12:30N 32°09' W 081°09'0 0.0
2018-Jun-17 12:00N 32°09' W 081°09'0 0.0
2018-Jun-17 11:30N 32°09' W 081°09'0 0.0
2018-Jun-16 22:51N 32°09' W 081°09'0 0.3
2018-Jun-16 22:30N 32°09' W 081°09'0 0.0
2018-Jun-16 22:00N 32°09' W 081°09'0 0.0
2018-Jun-16 21:29N 32°09' W 081°09'0 0.0
2018-Jun-16 21:00N 32°09' W 081°09'0 0.0
2018-Jun-16 20:29N 32°09' W 081°09'0 0.1
2018-Jun-16 20:00N 32°09' W 081°09'2 3.9
2018-Jun-16 19:29N 32°07' W 081°08'0 0.0
2018-Jun-16 19:00N 32°07' W 081°08'0 0.0
2018-Jun-16 18:30N 32°07' W 081°08'2 3.7
2018-Jun-16 18:00N 32°08' W 081°09'0 0.5
2018-Jun-16 17:29N 32°09' W 081°09'0 0.0
2018-Jun-16 17:00N 32°09' W 081°09'0 0.0
2018-Jun-16 16:30N 32°09' W 081°09'0 0.0
2018-Jun-16 16:00N 32°09' W 081°09'0 0.0
2018-Jun-16 15:30N 32°09' W 081°09'0 0.1
2018-Jun-16 15:00N 32°09' W 081°09'0 0.0
2018-Jun-16 14:29N 32°09' W 081°09'0 0.0
2018-Jun-16 14:00N 32°09' W 081°09'0 0.0
2018-Jun-16 13:30N 32°09' W 081°09'0 0.0
2018-Jun-16 12:59N 32°09' W 081°09'0 0.1
2018-Jun-16 12:30N 32°09' W 081°09'0 0.3
2018-Jun-16 11:56N 32°09' W 081°09'0 0.0
2018-Jun-16 00:35N 32°09' W 081°09'0 0.1
2018-Jun-16 00:29N 32°09' W 081°09'0 0.3
2018-Jun-15 23:59N 32°09' W 081°09'0 0.0
2018-Jun-15 23:30N 32°09' W 081°09'0 0.0
2018-Jun-15 23:00N 32°09' W 081°09'0 0.0
2018-Jun-15 22:30N 32°09' W 081°09'0 0.0
2018-Jun-15 22:00N 32°09' W 081°09'0 0.0
2018-Jun-15 21:30N 32°09' W 081°09'0 0.0
2018-Jun-15 21:00N 32°09' W 081°09'0 0.0
2018-Jun-15 20:30N 32°09' W 081°09'0 0.0
2018-Jun-15 19:59N 32°09' W 081°09'0 0.2
2018-Jun-15 19:28N 32°09' W 081°09'0 0.2
2018-Jun-15 18:59N 32°09' W 081°09'0 0.0
2018-Jun-15 18:29N 32°09' W 081°09'0 0.0
2018-Jun-15 18:00N 32°09' W 081°09'0 0.1
2018-Jun-15 17:30N 32°09' W 081°09'0 0.2
2018-Jun-15 17:00N 32°09' W 081°09'0 0.0
2018-Jun-15 16:29N 32°09' W 081°09'0 0.0
2018-Jun-15 16:00N 32°09' W 081°09'370127.3
2018-Jun-15 13:06N 36°50' W 076°18'1 2.3
2018-Jun-15 12:51N 36°50' W 076°18'3 4.6
2018-Jun-15 12:16N 36°52' W 076°20'37041.4
2018-Jun-15 03:20N 32°09' W 081°09'0 0.1
2018-Jun-15 03:00N 32°09' W 081°09'0 0.2
2018-Jun-15 02:29N 32°09' W 081°09'0 0.0
2018-Jun-15 02:00N 32°09' W 081°09'0 0.0
2018-Jun-15 01:30N 32°09' W 081°09'0 0.0
2018-Jun-15 01:00N 32°09' W 081°09'0 0.1
2018-Jun-15 00:30N 32°09' W 081°09'2 4.0
2018-Jun-15 00:00N 32°07' W 081°08'0 0.0
2018-Jun-14 23:30N 32°07' W 081°08'0 0.4
2018-Jun-14 23:00N 32°07' W 081°08'2 4.1
2018-Jun-14 22:30N 32°09' W 081°09'0 0.0
2018-Jun-14 22:00N 32°09' W 081°09'0 0.2
2018-Jun-14 21:30N 32°09' W 081°09'0 0.2
2018-Jun-14 21:00N 32°09' W 081°09'0 0.1
2018-Jun-14 20:30N 32°09' W 081°09'0 0.1
2018-Jun-14 20:00N 32°09' W 081°09'0 0.3
2018-Jun-14 19:28N 32°09' W 081°09'0 0.0
2018-Jun-14 19:00N 32°09' W 081°09'0 0.4
2018-Jun-14 18:30N 32°09' W 081°09'0 0.2
2018-Jun-14 18:00N 32°09' W 081°09'0 0.1
2018-Jun-14 17:30N 32°09' W 081°09'0 0.2
2018-Jun-14 17:00N 32°09' W 081°09'0 1.0
2018-Jun-14 16:30N 32°08' W 081°08'2 3.0
2018-Jun-14 16:00N 32°07' W 081°08'0 0.5
2018-Jun-14 15:30N 32°07' W 081°08'0 0.0
2018-Jun-14 15:00N 32°07' W 081°08'37219.5
2018-Jun-13 19:59N 36°50' W 076°16'37215.6
2018-Jun-12 20:11N 32°07' W 081°08'0 0.3
2018-Jun-12 20:00N 32°07' W 081°08'2 4.2
2018-Jun-12 19:30N 32°05' W 081°06'2 3.1
2018-Jun-12 19:00N 32°05' W 081°04'0 0.8
2018-Jun-12 18:30N 32°05' W 081°04'0 0.0
2018-Jun-12 18:00N 32°05' W 081°04'0 0.0
2018-Jun-12 17:30N 32°05' W 081°04'0 0.0
2018-Jun-12 17:00N 32°05' W 081°04'0 0.0
2018-Jun-12 16:30N 32°05' W 081°04'0 0.0
2018-Jun-12 16:00N 32°05' W 081°04'0 0.0
2018-Jun-12 15:30N 32°05' W 081°04'0 0.0
2018-Jun-12 15:00N 32°05' W 081°04'0 0.1
2018-Jun-12 14:30N 32°05' W 081°04'2 4.5
2018-Jun-12 14:00N 32°06' W 081°06'2 3.4
2018-Jun-12 13:30N 32°07' W 081°08'0 0.0
2018-Jun-12 13:00N 32°07' W 081°08'0 0.0
2018-Jun-12 12:25N 32°07' W 081°08'37116.1
2018-Jun-11 13:24N 36°52' W 076°19'2 3.1
2018-Jun-11 12:41N 36°50' W 076°16'1 0.4
2018-Jun-11 10:42N 36°51' W 076°17'3 6.5
2018-Jun-11 10:19N 36°52' W 076°20'  
2018-Jun-08 11:56N 36°58' W 076°25'4 4.9
2018-Jun-08 11:02N 37°01' W 076°20'0 4.4
2018-Jun-08 10:57N 37°01' W 076°21'0 0.3
2018-Jun-08 10:27N 37°01' W 076°20'2 3.5
2018-Jun-08 10:00N 36°60' W 076°21'37630.9
2018-Jun-07 21:49N 32°07' W 081°08'0 0.9
2018-Jun-07 21:31N 32°07' W 081°08'2 3.7
2018-Jun-07 21:01N 32°05' W 081°06'2 3.2
2018-Jun-07 20:29N 32°05' W 081°04'0 0.8
2018-Jun-07 20:00N 32°05' W 081°04'0 0.5
2018-Jun-07 19:30N 32°05' W 081°04'0 0.0
2018-Jun-07 19:00N 32°05' W 081°04'  
Track history (hours):
 
Tides and Currents Weather Stations Pressure Air Temp Water Temp Dewpoint Dewpoint Depression Visibility Wind Speed Wind Dir Waves Ship Positions

Engineer

Owner: Skiffs Creek Towing Inc., Yorktown, VA. More information available from US FCC via Universal Licensing System.

Last reported at 2018-Jun-17 18:35 UTC. Time now 2018-Jun-18 08:00 UTC.
Position N 32°09' W 081°09'.

Length 15 m.

Type: Tug. MMSI: 338142195.

Date/timePositionNaut miles runAvg speedWind from/ knotsBaromVisibWave heightAir tempDewpointWater temp
2018-Jun-17 18:35N 32°09' W 081°09'0 0.0
2018-Jun-17 18:30N 32°09' W 081°09'0 0.3
2018-Jun-17 18:00N 32°09' W 081°09'0 0.1
2018-Jun-17 17:30N 32°09' W 081°09'0 0.1
2018-Jun-17 17:00N 32°09' W 081°09'0 0.1
2018-Jun-17 16:30N 32°09' W 081°09'0 0.1
2018-Jun-17 16:00N 32°09' W 081°09'0 0.0
2018-Jun-17 15:30N 32°09' W 081°09'0 0.2
2018-Jun-17 15:00N 32°09' W 081°09'0 0.1
2018-Jun-17 14:30N 32°09' W 081°09'0 0.1
2018-Jun-17 14:00N 32°09' W 081°09'0 0.1
2018-Jun-17 13:30N 32°09' W 081°09'0 0.2
2018-Jun-17 13:00N 32°09' W 081°09'0 0.0
2018-Jun-17 12:30N 32°09' W 081°09'0 0.0
2018-Jun-17 12:00N 32°09' W 081°09'0 0.0
2018-Jun-17 11:30N 32°09' W 081°09'0 0.0
2018-Jun-16 22:51N 32°09' W 081°09'0 0.3
2018-Jun-16 22:30N 32°09' W 081°09'0 0.0
2018-Jun-16 22:00N 32°09' W 081°09'0 0.0
2018-Jun-16 21:29N 32°09' W 081°09'0 0.0
2018-Jun-16 21:00N 32°09' W 081°09'0 0.0
2018-Jun-16 20:29N 32°09' W 081°09'0 0.1
2018-Jun-16 20:00N 32°09' W 081°09'2 3.9
2018-Jun-16 19:29N 32°07' W 081°08'0 0.0
2018-Jun-16 19:00N 32°07' W 081°08'0 0.0
2018-Jun-16 18:30N 32°07' W 081°08'2 3.7
2018-Jun-16 18:00N 32°08' W 081°09'0 0.5
2018-Jun-16 17:29N 32°09' W 081°09'0 0.0
2018-Jun-16 17:00N 32°09' W 081°09'0 0.0
2018-Jun-16 16:30N 32°09' W 081°09'0 0.0
2018-Jun-16 16:00N 32°09' W 081°09'0 0.0
2018-Jun-16 15:30N 32°09' W 081°09'0 0.1
2018-Jun-16 15:00N 32°09' W 081°09'0 0.0
2018-Jun-16 14:29N 32°09' W 081°09'0 0.0
2018-Jun-16 14:00N 32°09' W 081°09'0 0.0
2018-Jun-16 13:30N 32°09' W 081°09'0 0.0
2018-Jun-16 12:59N 32°09' W 081°09'0 0.1
2018-Jun-16 12:30N 32°09' W 081°09'0 0.3
2018-Jun-16 11:56N 32°09' W 081°09'0 0.0
2018-Jun-16 00:35N 32°09' W 081°09'0 0.1
2018-Jun-16 00:29N 32°09' W 081°09'0 0.3
2018-Jun-15 23:59N 32°09' W 081°09'0 0.0
2018-Jun-15 23:30N 32°09' W 081°09'0 0.0
2018-Jun-15 23:00N 32°09' W 081°09'0 0.0
2018-Jun-15 22:30N 32°09' W 081°09'0 0.0
2018-Jun-15 22:00N 32°09' W 081°09'0 0.0
2018-Jun-15 21:30N 32°09' W 081°09'0 0.0
2018-Jun-15 21:00N 32°09' W 081°09'0 0.0
2018-Jun-15 20:30N 32°09' W 081°09'0 0.0
2018-Jun-15 19:59N 32°09' W 081°09'0 0.2
2018-Jun-15 19:28N 32°09' W 081°09'0 0.2
2018-Jun-15 18:59N 32°09' W 081°09'0 0.0
2018-Jun-15 18:29N 32°09' W 081°09'0 0.0
2018-Jun-15 18:00N 32°09' W 081°09'0 0.1
2018-Jun-15 17:30N 32°09' W 081°09'0 0.2
2018-Jun-15 17:00N 32°09' W 081°09'0 0.0
2018-Jun-15 16:29N 32°09' W 081°09'0 0.0
2018-Jun-15 16:00N 32°09' W 081°09'370127.3
2018-Jun-15 13:06N 36°50' W 076°18'1 2.3
2018-Jun-15 12:51N 36°50' W 076°18'3 4.6
2018-Jun-15 12:16N 36°52' W 076°20'37041.4
2018-Jun-15 03:20N 32°09' W 081°09'0 0.1
2018-Jun-15 03:00N 32°09' W 081°09'0 0.2
2018-Jun-15 02:29N 32°09' W 081°09'0 0.0
2018-Jun-15 02:00N 32°09' W 081°09'0 0.0
2018-Jun-15 01:30N 32°09' W 081°09'0 0.0
2018-Jun-15 01:00N 32°09' W 081°09'0 0.1
2018-Jun-15 00:30N 32°09' W 081°09'2 4.0
2018-Jun-15 00:00N 32°07' W 081°08'0 0.0
2018-Jun-14 23:30N 32°07' W 081°08'0 0.4
2018-Jun-14 23:00N 32°07' W 081°08'2 4.1
2018-Jun-14 22:30N 32°09' W 081°09'0 0.0
2018-Jun-14 22:00N 32°09' W 081°09'0 0.2
2018-Jun-14 21:30N 32°09' W 081°09'0 0.2
2018-Jun-14 21:00N 32°09' W 081°09'0 0.1
2018-Jun-14 20:30N 32°09' W 081°09'0 0.1
2018-Jun-14 20:00N 32°09' W 081°09'0 0.3
2018-Jun-14 19:28N 32°09' W 081°09'0 0.0
2018-Jun-14 19:00N 32°09' W 081°09'0 0.4
2018-Jun-14 18:30N 32°09' W 081°09'0 0.2
2018-Jun-14 18:00N 32°09' W 081°09'0 0.1
2018-Jun-14 17:30N 32°09' W 081°09'0 0.2
2018-Jun-14 17:00N 32°09' W 081°09'0 1.0
2018-Jun-14 16:30N 32°08' W 081°08'2 3.0
2018-Jun-14 16:00N 32°07' W 081°08'0 0.5
2018-Jun-14 15:30N 32°07' W 081°08'0 0.0
2018-Jun-14 15:00N 32°07' W 081°08'37219.5
2018-Jun-13 19:59N 36°50' W 076°16'37215.6
2018-Jun-12 20:11N 32°07' W 081°08'0 0.3
2018-Jun-12 20:00N 32°07' W 081°08'2 4.2
2018-Jun-12 19:30N 32°05' W 081°06'2 3.1
2018-Jun-12 19:00N 32°05' W 081°04'0 0.8
2018-Jun-12 18:30N 32°05' W 081°04'0 0.0
2018-Jun-12 18:00N 32°05' W 081°04'0 0.0
2018-Jun-12 17:30N 32°05' W 081°04'0 0.0
2018-Jun-12 17:00N 32°05' W 081°04'0 0.0
2018-Jun-12 16:30N 32°05' W 081°04'0 0.0
2018-Jun-12 16:00N 32°05' W 081°04'0 0.0
2018-Jun-12 15:30N 32°05' W 081°04'0 0.0
2018-Jun-12 15:00N 32°05' W 081°04'0 0.1
2018-Jun-12 14:30N 32°05' W 081°04'2 4.5
2018-Jun-12 14:00N 32°06' W 081°06'2 3.4
2018-Jun-12 13:30N 32°07' W 081°08'0 0.0
2018-Jun-12 13:00N 32°07' W 081°08'0 0.0
2018-Jun-12 12:25N 32°07' W 081°08'37116.1
2018-Jun-11 13:24N 36°52' W 076°19'2 3.1
2018-Jun-11 12:41N 36°50' W 076°16'1 0.4
2018-Jun-11 10:42N 36°51' W 076°17'3 6.5
2018-Jun-11 10:19N 36°52' W 076°20'  
2018-Jun-08 11:56N 36°58' W 076°25'4 4.9
2018-Jun-08 11:02N 37°01' W 076°20'0 4.4
2018-Jun-08 10:57N 37°01' W 076°21'0 0.3
2018-Jun-08 10:27N 37°01' W 076°20'2 3.5
2018-Jun-08 10:00N 36°60' W 076°21'37630.9
2018-Jun-07 21:49N 32°07' W 081°08'0 0.9
2018-Jun-07 21:31N 32°07' W 081°08'2 3.7
2018-Jun-07 21:01N 32°05' W 081°06'2 3.2
2018-Jun-07 20:29N 32°05' W 081°04'0 0.8
2018-Jun-07 20:00N 32°05' W 081°04'0 0.5
2018-Jun-07 19:30N 32°05' W 081°04'0 0.0
2018-Jun-07 19:00N 32°05' W 081°04'  

Dump ship's entire track history